sensor_id;sensor_type;location;lat;lon;timestamp;pressure;altitude;pressure_sealevel;temperature;humidity
11041;BME280;5573;49.592;8.662;2024-03-07T00:00:23;61852.47;;;-142.40;100.00
11041;BME280;5573;49.592;8.662;2024-03-07T00:02:51;61852.47;;;-142.40;100.00
11041;BME280;5573;49.592;8.662;2024-03-07T00:05:20;61852.47;;;-142.40;100.00
11041;BME280;5573;49.592;8.662;2024-03-07T00:07:52;61852.47;;;-142.40;100.00
11041;BME280;5573;49.592;8.662;2024-03-07T00:10:21;61852.47;;;-142.40;100.00
11041;BME280;5573;49.592;8.662;2024-03-07T00:12:50;61852.47;;;-142.40;100.00
11041;BME280;5573;49.592;8.662;2024-03-07T00:15:18;61852.47;;;-142.40;100.00
11041;BME280;5573;49.592;8.662;2024-03-07T00:17:45;61852.47;;;-142.40;100.00
11041;BME280;5573;49.592;8.662;2024-03-07T00:20:13;61852.47;;;-142.40;100.00
11041;BME280;5573;49.592;8.662;2024-03-07T00:22:47;61852.47;;;-142.40;100.00
11041;BME280;5573;49.592;8.662;2024-03-07T00:25:14;61852.47;;;-142.40;100.00
11041;BME280;5573;49.592;8.662;2024-03-07T00:27:48;61852.47;;;-142.40;100.00
11041;BME280;5573;49.592;8.662;2024-03-07T00:30:19;61852.47;;;-142.40;100.00
11041;BME280;5573;49.592;8.662;2024-03-07T00:32:47;61852.47;;;-142.40;100.00
11041;BME280;5573;49.592;8.662;2024-03-07T00:35:15;61852.47;;;-142.40;100.00
11041;BME280;5573;49.592;8.662;2024-03-07T00:37:44;61852.47;;;-142.40;100.00
11041;BME280;5573;49.592;8.662;2024-03-07T00:40:11;61852.47;;;-142.40;100.00
11041;BME280;5573;49.592;8.662;2024-03-07T00:42:39;61852.47;;;-142.40;100.00
11041;BME280;5573;49.592;8.662;2024-03-07T00:45:09;61852.47;;;-142.40;100.00
11041;BME280;5573;49.592;8.662;2024-03-07T00:47:36;61852.47;;;-142.40;100.00
11041;BME280;5573;49.592;8.662;2024-03-07T00:50:05;61852.47;;;-142.40;100.00
11041;BME280;5573;49.592;8.662;2024-03-07T00:52:36;61852.47;;;-142.40;100.00
11041;BME280;5573;49.592;8.662;2024-03-07T00:55:04;61852.47;;;-142.40;100.00
11041;BME280;5573;49.592;8.662;2024-03-07T00:57:36;61852.47;;;-142.40;100.00
11041;BME280;5573;49.592;8.662;2024-03-07T01:00:04;61852.47;;;-142.40;100.00
11041;BME280;5573;49.592;8.662;2024-03-07T01:02:39;61852.47;;;-142.40;100.00
11041;BME280;5573;49.592;8.662;2024-03-07T01:05:10;61852.47;;;-142.40;100.00
11041;BME280;5573;49.592;8.662;2024-03-07T01:07:40;61852.47;;;-142.40;100.00
11041;BME280;5573;49.592;8.662;2024-03-07T01:10:10;61852.47;;;-142.40;100.00
11041;BME280;5573;49.592;8.662;2024-03-07T01:12:37;61852.47;;;-142.40;100.00
11041;BME280;5573;49.592;8.662;2024-03-07T01:15:06;61852.47;;;-142.40;100.00
11041;BME280;5573;49.592;8.662;2024-03-07T01:17:35;61852.47;;;-142.40;100.00
11041;BME280;5573;49.592;8.662;2024-03-07T01:20:06;61852.47;;;-142.40;100.00
11041;BME280;5573;49.592;8.662;2024-03-07T01:22:34;61852.47;;;-142.40;100.00
11041;BME280;5573;49.592;8.662;2024-03-07T01:25:02;61852.47;;;-142.40;100.00
11041;BME280;5573;49.592;8.662;2024-03-07T01:27:30;61852.47;;;-142.40;100.00
11041;BME280;5573;49.592;8.662;2024-03-07T01:29:58;61852.47;;;-142.40;100.00
11041;BME280;5573;49.592;8.662;2024-03-07T01:32:26;61852.47;;;-142.40;100.00
11041;BME280;5573;49.592;8.662;2024-03-07T01:34:54;61852.47;;;-142.40;100.00
11041;BME280;5573;49.592;8.662;2024-03-07T01:37:23;61852.47;;;-142.40;100.00
11041;BME280;5573;49.592;8.662;2024-03-07T01:39:51;61852.47;;;-142.40;100.00
11041;BME280;5573;49.592;8.662;2024-03-07T01:42:19;61852.47;;;-142.40;100.00
11041;BME280;5573;49.592;8.662;2024-03-07T01:44:47;61852.47;;;-142.40;100.00
11041;BME280;5573;49.592;8.662;2024-03-07T01:47:14;61852.47;;;-142.40;100.00
11041;BME280;5573;49.592;8.662;2024-03-07T01:49:42;61852.47;;;-142.40;100.00
11041;BME280;5573;49.592;8.662;2024-03-07T01:52:11;61852.47;;;-142.40;100.00
11041;BME280;5573;49.592;8.662;2024-03-07T01:54:40;61852.47;;;-142.40;100.00
11041;BME280;5573;49.592;8.662;2024-03-07T01:57:08;61852.47;;;-142.40;100.00
11041;BME280;5573;49.592;8.662;2024-03-07T01:59:37;61852.47;;;-142.40;100.00
11041;BME280;5573;49.592;8.662;2024-03-07T02:02:06;61852.47;;;-142.40;100.00
11041;BME280;5573;49.592;8.662;2024-03-07T02:04:34;61852.47;;;-142.40;100.00
11041;BME280;5573;49.592;8.662;2024-03-07T02:07:02;61852.47;;;-142.40;100.00
11041;BME280;5573;49.592;8.662;2024-03-07T02:09:30;61852.47;;;-142.40;100.00
11041;BME280;5573;49.592;8.662;2024-03-07T02:11:59;61852.47;;;-142.40;100.00
11041;BME280;5573;49.592;8.662;2024-03-07T02:14:27;61852.47;;;-142.40;100.00
11041;BME280;5573;49.592;8.662;2024-03-07T02:16:56;61852.47;;;-142.40;100.00
11041;BME280;5573;49.592;8.662;2024-03-07T02:19:23;61852.47;;;-142.40;100.00
11041;BME280;5573;49.592;8.662;2024-03-07T02:21:53;61852.47;;;-142.40;100.00
11041;BME280;5573;49.592;8.662;2024-03-07T02:24:21;61852.47;;;-142.40;100.00
11041;BME280;5573;49.592;8.662;2024-03-07T02:26:49;61852.47;;;-142.40;100.00
11041;BME280;5573;49.592;8.662;2024-03-07T02:29:17;61852.47;;;-142.40;100.00
11041;BME280;5573;49.592;8.662;2024-03-07T02:31:46;61852.47;;;-142.40;100.00
11041;BME280;5573;49.592;8.662;2024-03-07T02:34:13;61852.47;;;-142.40;100.00
11041;BME280;5573;49.592;8.662;2024-03-07T02:36:41;61852.47;;;-142.40;100.00
11041;BME280;5573;49.592;8.662;2024-03-07T02:39:10;61852.47;;;-142.40;100.00
11041;BME280;5573;49.592;8.662;2024-03-07T02:41:38;61852.47;;;-142.40;100.00
11041;BME280;5573;49.592;8.662;2024-03-07T02:44:06;61852.47;;;-142.40;100.00
11041;BME280;5573;49.592;8.662;2024-03-07T02:46:34;61852.47;;;-142.40;100.00
11041;BME280;5573;49.592;8.662;2024-03-07T02:49:01;61852.47;;;-142.40;100.00
11041;BME280;5573;49.592;8.662;2024-03-07T02:51:29;61852.47;;;-142.40;100.00
11041;BME280;5573;49.592;8.662;2024-03-07T02:53:58;61852.47;;;-142.40;100.00
11041;BME280;5573;49.592;8.662;2024-03-07T02:56:27;61852.47;;;-142.40;100.00
11041;BME280;5573;49.592;8.662;2024-03-07T02:58:55;61852.47;;;-142.40;100.00
11041;BME280;5573;49.592;8.662;2024-03-07T03:01:25;61852.47;;;-142.40;100.00
11041;BME280;5573;49.592;8.662;2024-03-07T03:03:53;61852.47;;;-142.40;100.00
11041;BME280;5573;49.592;8.662;2024-03-07T03:06:21;61852.47;;;-142.40;100.00
11041;BME280;5573;49.592;8.662;2024-03-07T03:08:48;61852.47;;;-142.40;100.00
11041;BME280;5573;49.592;8.662;2024-03-07T03:11:16;61852.47;;;-142.40;100.00
11041;BME280;5573;49.592;8.662;2024-03-07T03:13:46;61852.47;;;-142.40;100.00
11041;BME280;5573;49.592;8.662;2024-03-07T03:16:14;61852.47;;;-142.40;100.00
11041;BME280;5573;49.592;8.662;2024-03-07T03:18:42;61852.47;;;-142.40;100.00
11041;BME280;5573;49.592;8.662;2024-03-07T03:21:09;61852.47;;;-142.40;100.00
11041;BME280;5573;49.592;8.662;2024-03-07T03:23:37;61852.47;;;-142.40;100.00
11041;BME280;5573;49.592;8.662;2024-03-07T03:26:05;61852.47;;;-142.40;100.00
11041;BME280;5573;49.592;8.662;2024-03-07T03:28:33;61852.47;;;-142.40;100.00
11041;BME280;5573;49.592;8.662;2024-03-07T03:31:03;61852.47;;;-142.40;100.00
11041;BME280;5573;49.592;8.662;2024-03-07T03:33:30;61852.47;;;-142.40;100.00
11041;BME280;5573;49.592;8.662;2024-03-07T03:35:58;61852.47;;;-142.40;100.00
11041;BME280;5573;49.592;8.662;2024-03-07T03:38:26;61852.47;;;-142.40;100.00
11041;BME280;5573;49.592;8.662;2024-03-07T03:40:54;61852.47;;;-142.40;100.00
11041;BME280;5573;49.592;8.662;2024-03-07T03:43:23;61852.47;;;-142.40;100.00
11041;BME280;5573;49.592;8.662;2024-03-07T03:45:51;61852.47;;;-142.40;100.00
11041;BME280;5573;49.592;8.662;2024-03-07T03:48:20;61852.47;;;-142.40;100.00
11041;BME280;5573;49.592;8.662;2024-03-07T03:50:48;61852.47;;;-142.40;100.00
11041;BME280;5573;49.592;8.662;2024-03-07T03:53:16;61852.47;;;-142.40;100.00
11041;BME280;5573;49.592;8.662;2024-03-07T03:55:44;61852.47;;;-142.40;100.00
11041;BME280;5573;49.592;8.662;2024-03-07T03:58:12;61852.47;;;-142.40;100.00
11041;BME280;5573;49.592;8.662;2024-03-07T04:00:40;61852.47;;;-142.40;100.00
11041;BME280;5573;49.592;8.662;2024-03-07T04:03:08;61852.47;;;-142.40;100.00
11041;BME280;5573;49.592;8.662;2024-03-07T04:05:37;61852.47;;;-142.40;100.00
11041;BME280;5573;49.592;8.662;2024-03-07T04:08:05;61852.47;;;-142.40;100.00
11041;BME280;5573;49.592;8.662;2024-03-07T04:10:33;61852.47;;;-142.40;100.00
11041;BME280;5573;49.592;8.662;2024-03-07T04:13:01;61852.47;;;-142.40;100.00
11041;BME280;5573;49.592;8.662;2024-03-07T04:15:30;61852.47;;;-142.40;100.00
11041;BME280;5573;49.592;8.662;2024-03-07T04:18:03;61852.47;;;-142.40;100.00
11041;BME280;5573;49.592;8.662;2024-03-07T04:20:32;61852.47;;;-142.40;100.00
11041;BME280;5573;49.592;8.662;2024-03-07T04:23:01;61852.47;;;-142.40;100.00
11041;BME280;5573;49.592;8.662;2024-03-07T04:25:29;61852.47;;;-142.40;100.00
11041;BME280;5573;49.592;8.662;2024-03-07T04:27:58;61852.47;;;-142.40;100.00
11041;BME280;5573;49.592;8.662;2024-03-07T04:30:25;61852.47;;;-142.40;100.00
11041;BME280;5573;49.592;8.662;2024-03-07T04:32:53;61852.47;;;-142.40;100.00
11041;BME280;5573;49.592;8.662;2024-03-07T04:35:21;61852.47;;;-142.40;100.00
11041;BME280;5573;49.592;8.662;2024-03-07T04:37:49;61852.47;;;-142.40;100.00
11041;BME280;5573;49.592;8.662;2024-03-07T04:40:21;61852.47;;;-142.40;100.00
11041;BME280;5573;49.592;8.662;2024-03-07T04:42:49;61852.47;;;-142.40;100.00
11041;BME280;5573;49.592;8.662;2024-03-07T04:45:19;61852.47;;;-142.40;100.00
11041;BME280;5573;49.592;8.662;2024-03-07T04:47:48;61852.47;;;-142.40;100.00
11041;BME280;5573;49.592;8.662;2024-03-07T04:50:16;61852.47;;;-142.40;100.00
11041;BME280;5573;49.592;8.662;2024-03-07T04:52:46;61852.47;;;-142.40;100.00
11041;BME280;5573;49.592;8.662;2024-03-07T04:55:16;61852.47;;;-142.40;100.00
11041;BME280;5573;49.592;8.662;2024-03-07T04:57:45;61852.47;;;-142.40;100.00
11041;BME280;5573;49.592;8.662;2024-03-07T05:00:15;61852.47;;;-142.40;100.00
11041;BME280;5573;49.592;8.662;2024-03-07T05:02:47;61852.47;;;-142.40;100.00
11041;BME280;5573;49.592;8.662;2024-03-07T05:05:15;61852.47;;;-142.40;100.00
11041;BME280;5573;49.592;8.662;2024-03-07T05:07:49;61852.47;;;-142.40;100.00
11041;BME280;5573;49.592;8.662;2024-03-07T05:10:18;61852.47;;;-142.40;100.00
11041;BME280;5573;49.592;8.662;2024-03-07T05:12:48;61852.47;;;-142.40;100.00
11041;BME280;5573;49.592;8.662;2024-03-07T05:15:16;61852.47;;;-142.40;100.00
11041;BME280;5573;49.592;8.662;2024-03-07T05:17:44;61852.47;;;-142.40;100.00
11041;BME280;5573;49.592;8.662;2024-03-07T05:20:12;61852.47;;;-142.40;100.00
11041;BME280;5573;49.592;8.662;2024-03-07T05:22:40;61852.47;;;-142.40;100.00
11041;BME280;5573;49.592;8.662;2024-03-07T05:25:11;61852.47;;;-142.40;100.00
11041;BME280;5573;49.592;8.662;2024-03-07T05:27:39;61852.47;;;-142.40;100.00
11041;BME280;5573;49.592;8.662;2024-03-07T05:30:09;61852.47;;;-142.40;100.00
11041;BME280;5573;49.592;8.662;2024-03-07T05:32:40;61852.47;;;-142.40;100.00
11041;BME280;5573;49.592;8.662;2024-03-07T05:35:08;61852.47;;;-142.40;100.00
11041;BME280;5573;49.592;8.662;2024-03-07T05:37:38;61852.47;;;-142.40;100.00
11041;BME280;5573;49.592;8.662;2024-03-07T05:40:09;61852.47;;;-142.40;100.00
11041;BME280;5573;49.592;8.662;2024-03-07T05:42:36;61852.47;;;-142.40;100.00
11041;BME280;5573;49.592;8.662;2024-03-07T05:45:05;61852.47;;;-142.40;100.00
11041;BME280;5573;49.592;8.662;2024-03-07T05:47:35;61852.47;;;-142.40;100.00
11041;BME280;5573;49.592;8.662;2024-03-07T05:50:04;61852.47;;;-142.40;100.00
11041;BME280;5573;49.592;8.662;2024-03-07T05:52:35;61852.47;;;-142.40;100.00
11041;BME280;5573;49.592;8.662;2024-03-07T05:55:03;61852.47;;;-142.40;100.00
11041;BME280;5573;49.592;8.662;2024-03-07T05:57:33;61852.47;;;-142.40;100.00
11041;BME280;5573;49.592;8.662;2024-03-07T06:00:00;61852.47;;;-142.40;100.00
11041;BME280;5573;49.592;8.662;2024-03-07T06:02:39;61852.47;;;-142.40;100.00
11041;BME280;5573;49.592;8.662;2024-03-07T06:05:07;61852.47;;;-142.40;100.00
11041;BME280;5573;49.592;8.662;2024-03-07T06:07:41;61852.47;;;-142.40;100.00
11041;BME280;5573;49.592;8.662;2024-03-07T06:10:09;61852.47;;;-142.40;100.00
11041;BME280;5573;49.592;8.662;2024-03-07T06:12:37;61852.47;;;-142.40;100.00
11041;BME280;5573;49.592;8.662;2024-03-07T06:15:14;61852.47;;;-142.40;100.00
11041;BME280;5573;49.592;8.662;2024-03-07T06:17:43;61852.47;;;-142.40;100.00
11041;BME280;5573;49.592;8.662;2024-03-07T06:20:13;61852.47;;;-142.40;84.42
11041;BME280;5573;49.592;8.662;2024-03-07T06:22:50;100428.91;;;-0.18;100.00
11041;BME280;5573;49.592;8.662;2024-03-07T06:25:18;100427.28;;;-0.19;100.00
11041;BME280;5573;49.592;8.662;2024-03-07T06:27:50;100429.81;;;-0.28;100.00
11041;BME280;5573;49.592;8.662;2024-03-07T06:30:18;100437.75;;;-0.19;100.00
11041;BME280;5573;49.592;8.662;2024-03-07T06:32:47;100426.19;;;-0.16;100.00
11041;BME280;5573;49.592;8.662;2024-03-07T06:35:16;100434.72;;;-0.14;100.00
11041;BME280;5573;49.592;8.662;2024-03-07T06:37:46;100430.84;;;-0.20;100.00
11041;BME280;5573;49.592;8.662;2024-03-07T06:40:14;100433.31;;;-0.18;100.00
11041;BME280;5573;49.592;8.662;2024-03-07T06:42:48;100436.44;;;-0.04;100.00
11041;BME280;5573;49.592;8.662;2024-03-07T06:45:15;100435.25;;;0.00;100.00
11041;BME280;5573;49.592;8.662;2024-03-07T06:47:44;100433.34;;;0.03;100.00
11041;BME280;5573;49.592;8.662;2024-03-07T06:50:15;100429.94;;;0.12;100.00
11041;BME280;5573;49.592;8.662;2024-03-07T06:52:58;100420.34;;;0.22;100.00
11041;BME280;5573;49.592;8.662;2024-03-07T06:55:30;100426.34;;;0.33;100.00
11041;BME280;5573;49.592;8.662;2024-03-07T06:58:00;100418.88;;;0.29;100.00
11041;BME280;5573;49.592;8.662;2024-03-07T07:00:31;100434.53;;;0.49;100.00
11041;BME280;5573;49.592;8.662;2024-03-07T07:03:02;100422.25;;;0.40;100.00
11041;BME280;5573;49.592;8.662;2024-03-07T07:05:33;100439.19;;;0.67;100.00
11041;BME280;5573;49.592;8.662;2024-03-07T07:08:01;100438.25;;;0.77;100.00
11041;BME280;5573;49.592;8.662;2024-03-07T07:10:29;100442.16;;;0.92;100.00
11041;BME280;5573;49.592;8.662;2024-03-07T07:12:57;100433.09;;;1.06;100.00
11041;BME280;5573;49.592;8.662;2024-03-07T07:15:25;100431.16;;;1.18;100.00
11041;BME280;5573;49.592;8.662;2024-03-07T07:17:52;100432.00;;;1.28;100.00
11041;BME280;5573;49.592;8.662;2024-03-07T07:20:20;100434.22;;;1.23;100.00
11041;BME280;5573;49.592;8.662;2024-03-07T07:22:52;100432.41;;;1.23;100.00
11041;BME280;5573;49.592;8.662;2024-03-07T07:25:20;100433.03;;;2.95;100.00
11041;BME280;5573;49.592;8.662;2024-03-07T07:27:49;100426.19;;;2.84;100.00
11041;BME280;5573;49.592;8.662;2024-03-07T07:30:20;100432.47;;;3.01;100.00
11041;BME280;5573;49.592;8.662;2024-03-07T07:32:50;100438.13;;;2.79;100.00
11041;BME280;5573;49.592;8.662;2024-03-07T07:35:18;100419.38;;;3.09;100.00
11041;BME280;5573;49.592;8.662;2024-03-07T07:37:48;100430.28;;;4.54;100.00
11041;BME280;5573;49.592;8.662;2024-03-07T07:40:19;100429.69;;;5.10;100.00
11041;BME280;5573;49.592;8.662;2024-03-07T07:42:50;100421.69;;;5.44;93.29
11041;BME280;5573;49.592;8.662;2024-03-07T07:45:20;100424.91;;;4.64;91.81
11041;BME280;5573;49.592;8.662;2024-03-07T07:47:48;100426.94;;;4.18;94.49
11041;BME280;5573;49.592;8.662;2024-03-07T07:50:18;100426.97;;;4.52;95.86
11041;BME280;5573;49.592;8.662;2024-03-07T07:52:48;100429.75;;;4.51;91.82
11041;BME280;5573;49.592;8.662;2024-03-07T07:55:17;100421.25;;;4.57;91.47
11041;BME280;5573;49.592;8.662;2024-03-07T07:57:47;100426.88;;;4.36;91.43
11041;BME280;5573;49.592;8.662;2024-03-07T08:00:16;100432.72;;;4.22;92.76
11041;BME280;5573;49.592;8.662;2024-03-07T08:02:51;100426.88;;;4.36;92.54
11041;BME280;5573;49.592;8.662;2024-03-07T08:05:19;100424.50;;;4.51;93.20
11041;BME280;5573;49.592;8.662;2024-03-07T08:07:50;100418.00;;;4.37;94.36
11041;BME280;5573;49.592;8.662;2024-03-07T08:10:19;100429.44;;;4.20;92.89
11041;BME280;5573;49.592;8.662;2024-03-07T08:12:49;100425.72;;;4.30;89.41
11041;BME280;5573;49.592;8.662;2024-03-07T08:15:18;100423.97;;;4.39;86.34
11041;BME280;5573;49.592;8.662;2024-03-07T08:17:47;100418.44;;;4.58;83.21
11041;BME280;5573;49.592;8.662;2024-03-07T08:20:17;100419.13;;;4.60;83.45
11041;BME280;5573;49.592;8.662;2024-03-07T08:22:48;61852.47;;;-142.40;100.00
11041;BME280;5573;49.592;8.662;2024-03-07T08:25:18;61852.47;;;-142.40;100.00
11041;BME280;5573;49.592;8.662;2024-03-07T08:27:49;61852.47;;;-142.40;100.00
11041;BME280;5573;49.592;8.662;2024-03-07T08:30:17;61852.47;;;-142.40;100.00
11041;BME280;5573;49.592;8.662;2024-03-07T08:32:46;61852.47;;;-142.40;100.00
11041;BME280;5573;49.592;8.662;2024-03-07T08:35:15;61852.47;;;-142.40;100.00
11041;BME280;5573;49.592;8.662;2024-03-07T08:37:44;61852.47;;;-142.40;100.00
11041;BME280;5573;49.592;8.662;2024-03-07T08:40:12;61852.47;;;-142.40;100.00
11041;BME280;5573;49.592;8.662;2024-03-07T08:42:48;61852.47;;;-142.40;100.00
11041;BME280;5573;49.592;8.662;2024-03-07T08:45:18;61852.47;;;-142.40;100.00
11041;BME280;5573;49.592;8.662;2024-03-07T08:47:47;61852.47;;;-142.40;100.00
11041;BME280;5573;49.592;8.662;2024-03-07T08:50:17;61852.47;;;-142.40;100.00
11041;BME280;5573;49.592;8.662;2024-03-07T08:52:46;61852.47;;;-142.40;100.00
11041;BME280;5573;49.592;8.662;2024-03-07T08:55:15;61852.47;;;-142.40;100.00
11041;BME280;5573;49.592;8.662;2024-03-07T08:57:44;61852.47;;;-142.40;100.00
11041;BME280;5573;49.592;8.662;2024-03-07T09:00:14;61852.47;;;-142.40;100.00
11041;BME280;5573;49.592;8.662;2024-03-07T09:02:50;61852.47;;;-142.40;100.00
11041;BME280;5573;49.592;8.662;2024-03-07T09:05:20;61852.47;;;-142.40;100.00
11041;BME280;5573;49.592;8.662;2024-03-07T09:07:50;61852.47;;;-142.40;100.00
11041;BME280;5573;49.592;8.662;2024-03-07T09:10:18;61852.47;;;-142.40;100.00
11041;BME280;5573;49.592;8.662;2024-03-07T09:12:49;61852.47;;;-142.40;100.00
11041;BME280;5573;49.592;8.662;2024-03-07T09:15:20;61852.47;;;-142.40;100.00
11041;BME280;5573;49.592;8.662;2024-03-07T09:17:50;61852.47;;;-142.40;100.00
11041;BME280;5573;49.592;8.662;2024-03-07T09:20:20;61852.47;;;-142.40;100.00
11041;BME280;5573;49.592;8.662;2024-03-07T09:22:48;61852.47;;;-142.40;100.00
11041;BME280;5573;49.592;8.662;2024-03-07T09:25:17;61852.47;;;-142.40;100.00
11041;BME280;5573;49.592;8.662;2024-03-07T09:27:46;61852.47;;;-142.40;100.00
11041;BME280;5573;49.592;8.662;2024-03-07T09:30:14;61852.47;;;-142.40;100.00
11041;BME280;5573;49.592;8.662;2024-03-07T09:32:47;61852.47;;;-142.40;100.00
11041;BME280;5573;49.592;8.662;2024-03-07T09:35:16;61852.47;;;-142.40;100.00
11041;BME280;5573;49.592;8.662;2024-03-07T09:37:44;61852.47;;;-142.40;100.00
11041;BME280;5573;49.592;8.662;2024-03-07T09:40:12;61852.47;;;-142.40;100.00
11041;BME280;5573;49.592;8.662;2024-03-07T09:42:42;61852.47;;;-142.40;100.00
11041;BME280;5573;49.592;8.662;2024-03-07T09:45:16;61852.47;;;-142.40;100.00
11041;BME280;5573;49.592;8.662;2024-03-07T09:47:49;61852.47;;;-142.40;100.00
11041;BME280;5573;49.592;8.662;2024-03-07T09:50:21;61852.47;;;-142.40;100.00
11041;BME280;5573;49.592;8.662;2024-03-07T09:52:52;61852.47;;;-142.40;100.00
11041;BME280;5573;49.592;8.662;2024-03-07T09:55:22;61852.47;;;-142.40;100.00
11041;BME280;5573;49.592;8.662;2024-03-07T09:57:53;61852.47;;;-142.40;100.00
11041;BME280;5573;49.592;8.662;2024-03-07T10:00:24;61852.47;;;-142.40;100.00
11041;BME280;5573;49.592;8.662;2024-03-07T10:02:59;61852.47;;;-142.40;100.00
11041;BME280;5573;49.592;8.662;2024-03-07T10:05:30;61852.47;;;-142.40;100.00
11041;BME280;5573;49.592;8.662;2024-03-07T10:07:59;61852.47;;;-142.40;100.00
11041;BME280;5573;49.592;8.662;2024-03-07T10:10:27;61852.47;;;-142.40;100.00
11041;BME280;5573;49.592;8.662;2024-03-07T10:12:57;61852.47;;;-142.40;100.00
11041;BME280;5573;49.592;8.662;2024-03-07T10:15:28;61852.47;;;-142.40;100.00
11041;BME280;5573;49.592;8.662;2024-03-07T10:17:55;61852.47;;;-142.40;100.00
11041;BME280;5573;49.592;8.662;2024-03-07T10:20:25;61852.47;;;-142.40;100.00
11041;BME280;5573;49.592;8.662;2024-03-07T10:22:54;61852.47;;;-142.40;100.00
11041;BME280;5573;49.592;8.662;2024-03-07T10:25:22;61852.47;;;-142.40;100.00
11041;BME280;5573;49.592;8.662;2024-03-07T10:27:52;61852.47;;;-142.40;100.00
11041;BME280;5573;49.592;8.662;2024-03-07T10:30:20;61852.47;;;-142.40;100.00
11041;BME280;5573;49.592;8.662;2024-03-07T10:32:52;61852.47;;;-142.40;100.00
11041;BME280;5573;49.592;8.662;2024-03-07T10:35:22;61852.47;;;-142.40;100.00
11041;BME280;5573;49.592;8.662;2024-03-07T10:37:53;61852.47;;;-142.40;100.00
11041;BME280;5573;49.592;8.662;2024-03-07T10:40:22;61852.47;;;-142.40;100.00
11041;BME280;5573;49.592;8.662;2024-03-07T10:42:56;61852.47;;;-142.40;100.00
11041;BME280;5573;49.592;8.662;2024-03-07T10:45:28;61852.47;;;-142.40;100.00
11041;BME280;5573;49.592;8.662;2024-03-07T10:47:57;61852.47;;;-142.40;100.00
11041;BME280;5573;49.592;8.662;2024-03-07T10:50:39;61852.47;;;-142.40;100.00
11041;BME280;5573;49.592;8.662;2024-03-07T10:53:18;61852.47;;;-142.40;100.00
11041;BME280;5573;49.592;8.662;2024-03-07T10:55:55;61852.47;;;-142.40;100.00
11041;BME280;5573;49.592;8.662;2024-03-07T10:58:33;61852.47;;;-142.40;100.00
11041;BME280;5573;49.592;8.662;2024-03-07T11:01:05;61852.47;;;-142.40;100.00
11041;BME280;5573;49.592;8.662;2024-03-07T11:03:34;61852.47;;;-142.40;100.00
11041;BME280;5573;49.592;8.662;2024-03-07T11:06:02;61852.47;;;-142.40;100.00
11041;BME280;5573;49.592;8.662;2024-03-07T11:08:36;61852.47;;;-142.40;100.00
11041;BME280;5573;49.592;8.662;2024-03-07T11:11:04;61852.47;;;-142.40;100.00
11041;BME280;5573;49.592;8.662;2024-03-07T11:13:33;61852.47;;;-142.40;100.00
11041;BME280;5573;49.592;8.662;2024-03-07T11:16:02;61852.47;;;-142.40;100.00
11041;BME280;5573;49.592;8.662;2024-03-07T11:18:32;61852.47;;;-142.40;100.00
11041;BME280;5573;49.592;8.662;2024-03-07T11:20:59;61852.47;;;-142.40;100.00
11041;BME280;5573;49.592;8.662;2024-03-07T11:23:28;61852.47;;;-142.40;100.00
11041;BME280;5573;49.592;8.662;2024-03-07T11:26:03;61852.47;;;-142.40;100.00
11041;BME280;5573;49.592;8.662;2024-03-07T11:28:35;61852.47;;;-142.40;100.00
11041;BME280;5573;49.592;8.662;2024-03-07T11:31:12;61852.47;;;-142.40;100.00
11041;BME280;5573;49.592;8.662;2024-03-07T11:33:41;61852.47;;;-142.40;100.00
11041;BME280;5573;49.592;8.662;2024-03-07T11:36:11;61852.47;;;-142.40;100.00
11041;BME280;5573;49.592;8.662;2024-03-07T11:38:44;61852.47;;;-142.40;100.00
11041;BME280;5573;49.592;8.662;2024-03-07T11:41:19;61852.47;;;-142.40;100.00
11041;BME280;5573;49.592;8.662;2024-03-07T11:43:47;61852.47;;;-142.40;100.00
11041;BME280;5573;49.592;8.662;2024-03-07T11:46:15;61852.47;;;-142.40;100.00
11041;BME280;5573;49.592;8.662;2024-03-07T11:48:44;61852.47;;;-142.40;100.00
11041;BME280;5573;49.592;8.662;2024-03-07T11:51:13;61852.47;;;-142.40;100.00
11041;BME280;5573;49.592;8.662;2024-03-07T11:53:43;61852.47;;;-142.40;100.00
11041;BME280;5573;49.592;8.662;2024-03-07T11:56:16;61852.47;;;-142.40;100.00
11041;BME280;5573;49.592;8.662;2024-03-07T11:58:44;61852.47;;;-142.40;100.00
11041;BME280;5573;49.592;8.662;2024-03-07T12:01:20;61852.47;;;-142.40;100.00
11041;BME280;5573;49.592;8.662;2024-03-07T12:03:52;61852.47;;;-142.40;100.00
11041;BME280;5573;49.592;8.662;2024-03-07T12:06:23;61852.47;;;-142.40;100.00
11041;BME280;5573;49.592;8.662;2024-03-07T12:08:52;61852.47;;;-142.40;100.00
11041;BME280;5573;49.592;8.662;2024-03-07T12:11:21;61852.47;;;-142.40;100.00
11041;BME280;5573;49.592;8.662;2024-03-07T12:13:52;61852.47;;;-142.40;100.00
11041;BME280;5573;49.592;8.662;2024-03-07T12:16:20;61852.47;;;-142.40;100.00
11041;BME280;5573;49.592;8.662;2024-03-07T12:18:55;61852.47;;;-142.40;100.00
11041;BME280;5573;49.592;8.662;2024-03-07T12:21:24;61852.47;;;-142.40;100.00
11041;BME280;5573;49.592;8.662;2024-03-07T12:23:54;61852.47;;;-142.40;100.00
11041;BME280;5573;49.592;8.662;2024-03-07T12:26:23;61852.47;;;-142.40;100.00
11041;BME280;5573;49.592;8.662;2024-03-07T12:28:52;61852.47;;;-142.40;100.00
11041;BME280;5573;49.592;8.662;2024-03-07T12:31:21;61852.47;;;-142.40;100.00
11041;BME280;5573;49.592;8.662;2024-03-07T12:33:51;61852.47;;;-142.40;100.00
11041;BME280;5573;49.592;8.662;2024-03-07T12:36:19;61852.47;;;-142.40;100.00
11041;BME280;5573;49.592;8.662;2024-03-07T12:38:53;61852.47;;;-142.40;100.00
11041;BME280;5573;49.592;8.662;2024-03-07T12:41:23;61852.47;;;-142.40;100.00
11041;BME280;5573;49.592;8.662;2024-03-07T12:43:51;61852.47;;;-142.40;100.00
11041;BME280;5573;49.592;8.662;2024-03-07T12:46:20;61852.47;;;-142.40;100.00
11041;BME280;5573;49.592;8.662;2024-03-07T12:48:48;61852.47;;;-142.40;100.00
11041;BME280;5573;49.592;8.662;2024-03-07T12:51:17;61852.47;;;-142.40;100.00
11041;BME280;5573;49.592;8.662;2024-03-07T12:53:51;61852.47;;;-142.40;100.00